sensor_id;sensor_type;location;lat;lon;timestamp;pressure;altitude;pressure_sealevel;temperature;humidity
64388;BME280;50709;52.648;4.764;2023-04-22T00:02:14;100897.47;;;12.90;71.79
64388;BME280;50709;52.648;4.764;2023-04-22T00:04:59;100889.56;;;12.89;71.74
64388;BME280;50709;52.648;4.764;2023-04-22T00:07:25;100908.78;;;12.97;72.41
64388;BME280;50709;52.648;4.764;2023-04-22T00:09:50;100881.53;;;13.15;72.71
64388;BME280;50709;52.648;4.764;2023-04-22T00:12:16;100891.34;;;12.93;71.36
64388;BME280;50709;52.648;4.764;2023-04-22T00:14:41;100883.69;;;12.53;72.23
64388;BME280;50709;52.648;4.764;2023-04-22T00:17:07;100865.25;;;12.73;72.84
64388;BME280;50709;52.648;4.764;2023-04-22T00:19:33;100893.91;;;12.96;73.32
64388;BME280;50709;52.648;4.764;2023-04-22T00:21:58;100884.53;;;12.56;72.09
64388;BME280;50709;52.648;4.764;2023-04-22T00:24:24;100883.75;;;12.39;73.22
64388;BME280;50709;52.648;4.764;2023-04-22T00:26:50;100884.63;;;12.39;73.67
64388;BME280;50709;52.648;4.764;2023-04-22T00:29:15;100882.63;;;12.85;73.25
64388;BME280;50709;52.648;4.764;2023-04-22T00:31:41;100889.81;;;12.50;72.94
64388;BME280;50709;52.648;4.764;2023-04-22T00:34:06;100889.59;;;12.87;73.17
64388;BME280;50709;52.648;4.764;2023-04-22T00:36:32;100895.69;;;12.91;73.43
64388;BME280;50709;52.648;4.764;2023-04-22T00:38:57;100888.03;;;12.57;72.75
64388;BME280;50709;52.648;4.764;2023-04-22T00:41:23;100860.91;;;12.70;72.95
64388;BME280;50709;52.648;4.764;2023-04-22T00:43:49;100905.25;;;13.01;72.36
64388;BME280;50709;52.648;4.764;2023-04-22T00:46:15;100900.97;;;12.85;72.15
64388;BME280;50709;52.648;4.764;2023-04-22T00:48:40;100903.78;;;12.52;71.51
64388;BME280;50709;52.648;4.764;2023-04-22T00:51:06;100904.41;;;12.96;72.60
64388;BME280;50709;52.648;4.764;2023-04-22T00:53:32;100899.38;;;12.59;73.10
64388;BME280;50709;52.648;4.764;2023-04-22T00:55:58;100899.56;;;12.14;72.30
64388;BME280;50709;52.648;4.764;2023-04-22T00:58:27;100896.03;;;12.26;73.17
64388;BME280;50709;52.648;4.764;2023-04-22T01:00:52;100868.78;;;12.64;72.21
64388;BME280;50709;52.648;4.764;2023-04-22T01:03:18;100907.88;;;13.01;72.73
64388;BME280;50709;52.648;4.764;2023-04-22T01:05:45;100903.38;;;13.19;72.14
64388;BME280;50709;52.648;4.764;2023-04-22T01:08:12;100889.47;;;13.06;71.54
64388;BME280;50709;52.648;4.764;2023-04-22T01:10:38;100893.78;;;13.15;71.99
64388;BME280;50709;52.648;4.764;2023-04-22T01:13:05;100914.97;;;12.81;72.34
64388;BME280;50709;52.648;4.764;2023-04-22T01:15:30;100909.00;;;12.58;73.54
64388;BME280;50709;52.648;4.764;2023-04-22T01:17:58;100906.25;;;12.82;73.99
64388;BME280;50709;52.648;4.764;2023-04-22T01:20:44;100904.53;;;12.74;73.08
64388;BME280;50709;52.648;4.764;2023-04-22T01:23:19;100900.91;;;12.94;72.74
64388;BME280;50709;52.648;4.764;2023-04-22T01:25:46;100897.50;;;12.83;72.50
64388;BME280;50709;52.648;4.764;2023-04-22T01:28:12;100899.31;;;12.74;72.86
64388;BME280;50709;52.648;4.764;2023-04-22T01:30:38;100904.59;;;12.65;72.86
64388;BME280;50709;52.648;4.764;2023-04-22T01:33:04;100902.22;;;12.11;73.49
64388;BME280;50709;52.648;4.764;2023-04-22T01:35:29;100897.84;;;12.16;73.52
64388;BME280;50709;52.648;4.764;2023-04-22T01:38:05;100895.19;;;12.22;74.63
64388;BME280;50709;52.648;4.764;2023-04-22T01:40:31;100894.38;;;11.95;74.07
64388;BME280;50709;52.648;4.764;2023-04-22T01:42:58;100901.25;;;12.29;73.93
64388;BME280;50709;52.648;4.764;2023-04-22T01:45:24;100898.75;;;12.03;74.97
64388;BME280;50709;52.648;4.764;2023-04-22T01:47:50;100900.44;;;12.11;74.82
64388;BME280;50709;52.648;4.764;2023-04-22T01:50:15;100905.72;;;11.88;73.48
64388;BME280;50709;52.648;4.764;2023-04-22T01:52:41;100905.56;;;12.42;74.04
64388;BME280;50709;52.648;4.764;2023-04-22T01:55:07;100903.81;;;12.43;73.72
64388;BME280;50709;52.648;4.764;2023-04-22T01:57:33;100898.59;;;12.46;73.77
64388;BME280;50709;52.648;4.764;2023-04-22T01:59:58;100895.19;;;12.27;74.24
64388;BME280;50709;52.648;4.764;2023-04-22T02:02:24;100902.94;;;12.49;74.80
64388;BME280;50709;52.648;4.764;2023-04-22T02:04:50;100902.22;;;11.85;74.60
64388;BME280;50709;52.648;4.764;2023-04-22T02:07:15;100901.25;;;12.34;74.99
64388;BME280;50709;52.648;4.764;2023-04-22T02:09:42;100902.97;;;12.39;73.16
64388;BME280;50709;52.648;4.764;2023-04-22T02:12:08;100892.56;;;12.25;74.02
64388;BME280;50709;52.648;4.764;2023-04-22T02:14:33;100896.91;;;12.25;73.50
64388;BME280;50709;52.648;4.764;2023-04-22T02:16:58;100903.81;;;12.48;73.63
64388;BME280;50709;52.648;4.764;2023-04-22T02:19:26;100895.22;;;12.11;74.35
64388;BME280;50709;52.648;4.764;2023-04-22T02:21:52;100901.38;;;12.03;72.79
64388;BME280;50709;52.648;4.764;2023-04-22T02:24:17;100895.28;;;11.85;73.71
64388;BME280;50709;52.648;4.764;2023-04-22T02:26:44;100897.88;;;11.81;73.46
64388;BME280;50709;52.648;4.764;2023-04-22T02:29:10;100897.00;;;11.91;74.30
64388;BME280;50709;52.648;4.764;2023-04-22T02:31:35;100895.25;;;12.05;73.51
64388;BME280;50709;52.648;4.764;2023-04-22T02:34:02;100881.22;;;12.22;74.62
64388;BME280;50709;52.648;4.764;2023-04-22T02:36:27;100899.59;;;12.09;72.94
64388;BME280;50709;52.648;4.764;2023-04-22T02:38:53;100900.38;;;12.30;73.32
64388;BME280;50709;52.648;4.764;2023-04-22T02:41:19;100900.38;;;12.30;73.43
64388;BME280;50709;52.648;4.764;2023-04-22T02:43:44;100904.72;;;12.40;73.16
64388;BME280;50709;52.648;4.764;2023-04-22T02:46:11;100897.84;;;11.91;73.31
64388;BME280;50709;52.648;4.764;2023-04-22T02:48:37;100890.94;;;11.63;73.05
64388;BME280;50709;52.648;4.764;2023-04-22T02:51:03;100891.69;;;12.23;73.36
64388;BME280;50709;52.648;4.764;2023-04-22T02:53:30;100895.19;;;12.25;73.80
64388;BME280;50709;52.648;4.764;2023-04-22T02:55:56;100893.31;;;12.48;73.69
64388;BME280;50709;52.648;4.764;2023-04-22T02:58:23;100901.09;;;12.63;73.50
64388;BME280;50709;52.648;4.764;2023-04-22T03:01:08;100884.69;;;12.27;72.94
64388;BME280;50709;52.648;4.764;2023-04-22T03:03:34;100900.31;;;12.45;73.59
64388;BME280;50709;52.648;4.764;2023-04-22T03:05:59;100880.09;;;12.71;72.66
64388;BME280;50709;52.648;4.764;2023-04-22T03:08:24;100890.63;;;12.66;72.41
64388;BME280;50709;52.648;4.764;2023-04-22T03:10:51;100878.41;;;12.60;72.48
64388;BME280;50709;52.648;4.764;2023-04-22T03:13:16;100883.63;;;12.65;72.76
64388;BME280;50709;52.648;4.764;2023-04-22T03:15:42;100873.19;;;12.56;72.39
64388;BME280;50709;52.648;4.764;2023-04-22T03:18:08;100881.28;;;12.05;73.74
64388;BME280;50709;52.648;4.764;2023-04-22T03:20:34;100878.72;;;11.97;74.35
64388;BME280;50709;52.648;4.764;2023-04-22T03:22:59;100878.69;;;11.82;73.45
64388;BME280;50709;52.648;4.764;2023-04-22T03:25:25;100867.41;;;11.64;76.34
64388;BME280;50709;52.648;4.764;2023-04-22T03:27:50;100870.00;;;11.72;75.13
64388;BME280;50709;52.648;4.764;2023-04-22T03:30:16;100856.91;;;11.66;75.36
64388;BME280;50709;52.648;4.764;2023-04-22T03:32:41;100868.22;;;11.85;75.03
64388;BME280;50709;52.648;4.764;2023-04-22T03:35:07;100866.47;;;11.85;74.96
64388;BME280;50709;52.648;4.764;2023-04-22T03:37:32;100855.13;;;12.02;75.00
64388;BME280;50709;52.648;4.764;2023-04-22T03:39:58;100856.00;;;12.01;74.48
64388;BME280;50709;52.648;4.764;2023-04-22T03:42:23;100848.25;;;11.54;75.07
64388;BME280;50709;52.648;4.764;2023-04-22T03:44:48;100851.66;;;11.78;74.74
64388;BME280;50709;52.648;4.764;2023-04-22T03:47:14;100842.06;;;11.88;74.20
64388;BME280;50709;52.648;4.764;2023-04-22T03:49:39;100830.69;;;11.89;74.39
64388;BME280;50709;52.648;4.764;2023-04-22T03:52:05;100829.03;;;11.68;75.05
64388;BME280;50709;52.648;4.764;2023-04-22T03:54:30;100829.06;;;11.55;74.62
64388;BME280;50709;52.648;4.764;2023-04-22T03:56:56;100829.03;;;11.66;75.48
64388;BME280;50709;52.648;4.764;2023-04-22T03:59:22;100833.38;;;11.73;74.92
64388;BME280;50709;52.648;4.764;2023-04-22T04:01:50;100833.34;;;11.75;73.67
64388;BME280;50709;52.648;4.764;2023-04-22T04:04:16;100840.28;;;11.91;74.67
64388;BME280;50709;52.648;4.764;2023-04-22T04:06:44;100825.47;;;11.90;73.76
64388;BME280;50709;52.648;4.764;2023-04-22T04:09:10;100813.28;;;11.78;73.63
64388;BME280;50709;52.648;4.764;2023-04-22T04:11:36;100836.81;;;11.97;73.39
64388;BME280;50709;52.648;4.764;2023-04-22T04:14:01;100824.56;;;11.91;73.05
64388;BME280;50709;52.648;4.764;2023-04-22T04:16:27;100833.41;;;11.63;73.45
64388;BME280;50709;52.648;4.764;2023-04-22T04:18:53;100808.19;;;11.07;73.91
64388;BME280;50709;52.648;4.764;2023-04-22T04:21:38;100828.19;;;11.52;74.65
64388;BME280;50709;52.648;4.764;2023-04-22T04:24:04;100828.97;;;11.82;74.49
64388;BME280;50709;52.648;4.764;2023-04-22T04:26:30;100818.50;;;11.97;73.76
64388;BME280;50709;52.648;4.764;2023-04-22T04:28:56;100825.41;;;12.09;73.81
64388;BME280;50709;52.648;4.764;2023-04-22T04:31:22;100825.47;;;12.03;73.43
64388;BME280;50709;52.648;4.764;2023-04-22T04:33:49;100826.41;;;11.66;72.38
64388;BME280;50709;52.648;4.764;2023-04-22T04:36:15;100835.94;;;11.90;74.24
64388;BME280;50709;52.648;4.764;2023-04-22T04:39:01;100825.47;;;11.98;74.09
64388;BME280;50709;52.648;4.764;2023-04-22T04:41:27;100833.34;;;11.95;73.31
64388;BME280;50709;52.648;4.764;2023-04-22T04:43:53;100824.56;;;11.93;73.11
64388;BME280;50709;52.648;4.764;2023-04-22T04:46:20;100835.03;;;12.05;73.28
64388;BME280;50709;52.648;4.764;2023-04-22T04:49:06;100829.84;;;11.84;72.87
64388;BME280;50709;52.648;4.764;2023-04-22T04:51:37;100820.25;;;11.90;73.14
64388;BME280;50709;52.648;4.764;2023-04-22T04:54:02;100826.34;;;11.97;72.99
64388;BME280;50709;52.648;4.764;2023-04-22T04:56:28;100826.38;;;11.80;72.87
64388;BME280;50709;52.648;4.764;2023-04-22T04:58:55;100807.28;;;11.36;73.57
64388;BME280;50709;52.648;4.764;2023-04-22T05:01:23;100833.34;;;11.76;73.81
64388;BME280;50709;52.648;4.764;2023-04-22T05:03:51;100820.22;;;11.87;73.90
64388;BME280;50709;52.648;4.764;2023-04-22T05:06:16;100836.78;;;12.02;74.18
64388;BME280;50709;52.648;4.764;2023-04-22T05:08:42;100828.94;;;12.02;73.26
64388;BME280;50709;52.648;4.764;2023-04-22T05:11:10;100828.06;;;11.89;72.79
64388;BME280;50709;52.648;4.764;2023-04-22T05:13:36;100817.59;;;12.00;73.34
64388;BME280;50709;52.648;4.764;2023-04-22T05:16:03;100826.28;;;12.06;73.00
64388;BME280;50709;52.648;4.764;2023-04-22T05:18:48;100834.13;;;12.14;73.15
64388;BME280;50709;52.648;4.764;2023-04-22T05:21:15;100842.03;;;11.89;72.61
64388;BME280;50709;52.648;4.764;2023-04-22T05:23:41;100788.13;;;11.40;73.11
64388;BME280;50709;52.648;4.764;2023-04-22T05:26:06;100831.66;;;11.66;72.89
64388;BME280;50709;52.648;4.764;2023-04-22T05:28:32;100819.41;;;11.71;74.07
64388;BME280;50709;52.648;4.764;2023-04-22T05:31:17;100830.69;;;12.01;73.59
64388;BME280;50709;52.648;4.764;2023-04-22T05:34:03;100830.69;;;12.00;73.83
64388;BME280;50709;52.648;4.764;2023-04-22T05:36:28;100831.56;;;12.08;73.25
64388;BME280;50709;52.648;4.764;2023-04-22T05:38:54;100825.41;;;12.09;73.31
64388;BME280;50709;52.648;4.764;2023-04-22T05:41:19;100828.88;;;12.19;73.58
64388;BME280;50709;52.648;4.764;2023-04-22T05:43:44;100838.47;;;12.17;73.69
64388;BME280;50709;52.648;4.764;2023-04-22T05:46:10;100840.22;;;12.18;73.55
64388;BME280;50709;52.648;4.764;2023-04-22T05:48:35;100832.44;;;12.05;72.93
64388;BME280;50709;52.648;4.764;2023-04-22T05:51:01;100825.41;;;12.07;73.72
64388;BME280;50709;52.648;4.764;2023-04-22T05:53:27;100810.59;;;12.08;73.68
64388;BME280;50709;52.648;4.764;2023-04-22T05:55:52;100808.00;;;11.92;73.23
64388;BME280;50709;52.648;4.764;2023-04-22T05:58:17;100838.56;;;12.01;72.69
64388;BME280;50709;52.648;4.764;2023-04-22T06:00:43;100832.41;;;12.04;72.49
64388;BME280;50709;52.648;4.764;2023-04-22T06:03:08;100835.06;;;11.99;74.25
64388;BME280;50709;52.648;4.764;2023-04-22T06:05:34;100832.34;;;12.19;73.84
64388;BME280;50709;52.648;4.764;2023-04-22T06:07:59;100826.19;;;12.26;73.42
64388;BME280;50709;52.648;4.764;2023-04-22T06:10:25;100826.97;;;12.45;72.94
64388;BME280;50709;52.648;4.764;2023-04-22T06:12:50;100824.50;;;12.15;72.92
64388;BME280;50709;52.648;4.764;2023-04-22T06:15:16;100836.56;;;12.53;73.35
64388;BME280;50709;52.648;4.764;2023-04-22T06:17:41;100805.03;;;12.60;72.55
64388;BME280;50709;52.648;4.764;2023-04-22T06:20:09;100822.63;;;12.43;73.13
64388;BME280;50709;52.648;4.764;2023-04-22T06:22:34;100836.41;;;12.70;72.50
64388;BME280;50709;52.648;4.764;2023-04-22T06:25:00;100812.97;;;12.54;72.66
64388;BME280;50709;52.648;4.764;2023-04-22T06:27:25;100818.13;;;12.67;71.93
64388;BME280;50709;52.648;4.764;2023-04-22T06:29:51;100822.50;;;12.63;72.37
64388;BME280;50709;52.648;4.764;2023-04-22T06:32:16;100812.97;;;12.53;73.06
64388;BME280;50709;52.648;4.764;2023-04-22T06:34:41;100821.63;;;12.64;72.68
64388;BME280;50709;52.648;4.764;2023-04-22T06:37:07;100809.47;;;12.54;72.66
64388;BME280;50709;52.648;4.764;2023-04-22T06:39:33;100819.88;;;12.66;72.41
64388;BME280;50709;52.648;4.764;2023-04-22T06:41:58;100815.56;;;12.56;72.95
64388;BME280;50709;52.648;4.764;2023-04-22T06:44:25;100815.38;;;12.85;72.12
64388;BME280;50709;52.648;4.764;2023-04-22T06:46:51;100808.28;;;12.95;72.14
64388;BME280;50709;52.648;4.764;2023-04-22T06:49:18;100809.16;;;12.94;72.18
64388;BME280;50709;52.648;4.764;2023-04-22T06:51:43;100810.84;;;13.03;72.18
64388;BME280;50709;52.648;4.764;2023-04-22T06:54:08;100802.81;;;13.20;72.08
64388;BME280;50709;52.648;4.764;2023-04-22T06:56:34;100801.97;;;13.18;71.76
64388;BME280;50709;52.648;4.764;2023-04-22T06:59:00;100797.53;;;13.24;71.05
64388;BME280;50709;52.648;4.764;2023-04-22T07:01:25;100790.53;;;13.25;70.54
64388;BME280;50709;52.648;4.764;2023-04-22T07:03:50;100788.81;;;13.25;70.90
64388;BME280;50709;52.648;4.764;2023-04-22T07:06:16;100778.19;;;13.41;70.81
64388;BME280;50709;52.648;4.764;2023-04-22T07:08:41;100778.84;;;13.58;70.78
64388;BME280;50709;52.648;4.764;2023-04-22T07:11:08;100776.25;;;13.57;70.13
64388;BME280;50709;52.648;4.764;2023-04-22T07:13:34;100790.34;;;13.46;70.49
64388;BME280;50709;52.648;4.764;2023-04-22T07:16:00;100761.47;;;13.51;70.44
64388;BME280;50709;52.648;4.764;2023-04-22T07:18:25;100766.31;;;12.96;70.76
64388;BME280;50709;52.648;4.764;2023-04-22T07:20:51;100780.94;;;13.25;71.31
64388;BME280;50709;52.648;4.764;2023-04-22T07:23:17;100773.88;;;13.29;71.18
64388;BME280;50709;52.648;4.764;2023-04-22T07:25:42;100785.81;;;13.62;70.53
64388;BME280;50709;52.648;4.764;2023-04-22T07:28:07;100776.19;;;13.61;69.79
64388;BME280;50709;52.648;4.764;2023-04-22T07:30:33;100783.69;;;13.95;69.38
64388;BME280;50709;52.648;4.764;2023-04-22T07:32:58;100777.56;;;13.93;68.81
64388;BME280;50709;52.648;4.764;2023-04-22T07:35:24;100774.06;;;13.94;69.44
64388;BME280;50709;52.648;4.764;2023-04-22T07:37:49;100775.75;;;13.99;68.85
64388;BME280;50709;52.648;4.764;2023-04-22T07:40:15;100776.41;;;14.13;68.99
64388;BME280;50709;52.648;4.764;2023-04-22T07:42:40;100787.56;;;14.30;67.96
64388;BME280;50709;52.648;4.764;2023-04-22T07:45:06;100792.91;;;14.24;68.49
64388;BME280;50709;52.648;4.764;2023-04-22T07:47:32;100799.91;;;14.25;67.59
64388;BME280;50709;52.648;4.764;2023-04-22T07:49:57;100785.88;;;14.25;68.00
64388;BME280;50709;52.648;4.764;2023-04-22T07:52:23;100783.44;;;14.12;70.30
64388;BME280;50709;52.648;4.764;2023-04-22T07:54:48;100781.47;;;14.28;71.41
64388;BME280;50709;52.648;4.764;2023-04-22T07:57:14;100766.56;;;14.29;70.93
64388;BME280;50709;52.648;4.764;2023-04-22T07:59:39;100760.09;;;14.52;70.99
64388;BME280;50709;52.648;4.764;2023-04-22T08:02:05;100759.09;;;14.62;71.58
64388;BME280;50709;52.648;4.764;2023-04-22T08:04:30;100768.53;;;14.75;71.16
64388;BME280;50709;52.648;4.764;2023-04-22T08:06:56;100760.22;;;15.00;68.31
64388;BME280;50709;52.648;4.764;2023-04-22T08:09:21;100762.59;;;15.14;69.10
64388;BME280;50709;52.648;4.764;2023-04-22T08:11:47;100755.56;;;15.16;68.12
64388;BME280;50709;52.648;4.764;2023-04-22T08:14:12;100762.19;;;15.36;67.30
64388;BME280;50709;52.648;4.764;2023-04-22T08:16:38;100763.03;;;15.39;66.82
64388;BME280;50709;52.648;4.764;2023-04-22T08:19:04;100778.53;;;15.53;65.56
64388;BME280;50709;52.648;4.764;2023-04-22T08:21:29;100767.78;;;15.64;65.51
64388;BME280;50709;52.648;4.764;2023-04-22T08:23:55;100758.22;;;15.60;65.03
64388;BME280;50709;52.648;4.764;2023-04-22T08:26:21;100761.25;;;15.85;65.77
64388;BME280;50709;52.648;4.764;2023-04-22T08:28:46;100771.63;;;15.93;64.32
64388;BME280;50709;52.648;4.764;2023-04-22T08:31:12;100763.28;;;16.14;63.74
64388;BME280;50709;52.648;4.764;2023-04-22T08:33:41;100758.81;;;16.17;62.21
64388;BME280;50709;52.648;4.764;2023-04-22T08:36:07;100736.53;;;16.31;62.01
64388;BME280;50709;52.648;4.764;2023-04-22T08:38:33;100744.97;;;16.46;63.28
64388;BME280;50709;52.648;4.764;2023-04-22T08:40:59;100747.72;;;16.41;62.00
64388;BME280;50709;52.648;4.764;2023-04-22T08:43:25;100683.94;;;16.27;62.64
64388;BME280;50709;52.648;4.764;2023-04-22T08:45:51;100732.72;;;16.79;61.65
64388;BME280;50709;52.648;4.764;2023-04-22T08:48:18;100715.44;;;17.04;59.51
64388;BME280;50709;52.648;4.764;2023-04-22T08:50:46;100673.63;;;16.87;58.87
64388;BME280;50709;52.648;4.764;2023-04-22T08:53:12;100717.53;;;17.24;58.71
64388;BME280;50709;52.648;4.764;2023-04-22T08:55:39;100701.81;;;17.19;58.21
64388;BME280;50709;52.648;4.764;2023-04-22T08:58:07;100719.03;;;17.32;57.76
64388;BME280;50709;52.648;4.764;2023-04-22T09:00:34;100705.78;;;17.34;58.48
64388;BME280;50709;52.648;4.764;2023-04-22T09:03:01;100708.03;;;17.18;57.91
64388;BME280;50709;52.648;4.764;2023-04-22T09:05:31;100654.63;;;17.08;58.13
64388;BME280;50709;52.648;4.764;2023-04-22T09:07:58;100711.31;;;17.26;57.15
64388;BME280;50709;52.648;4.764;2023-04-22T09:10:24;100707.59;;;17.63;57.25
64388;BME280;50709;52.648;4.764;2023-04-22T09:12:50;100716.78;;;17.80;57.14
64388;BME280;50709;52.648;4.764;2023-04-22T09:15:16;100725.03;;;17.69;56.77
64388;BME280;50709;52.648;4.764;2023-04-22T09:17:42;100712.75;;;17.68;56.91
64388;BME280;50709;52.648;4.764;2023-04-22T09:20:08;100718.63;;;17.78;56.76
64388;BME280;50709;52.648;4.764;2023-04-22T09:22:45;100712.63;;;18.03;56.11
64388;BME280;50709;52.648;4.764;2023-04-22T09:25:15;100717.13;;;18.27;54.77
64388;BME280;50709;52.648;4.764;2023-04-22T09:27:41;100716.84;;;18.08;56.01
64388;BME280;50709;52.648;4.764;2023-04-22T09:30:08;100726.56;;;17.78;55.31
64388;BME280;50709;52.648;4.764;2023-04-22T09:32:34;100723.81;;;17.81;55.68
64388;BME280;50709;52.648;4.764;2023-04-22T09:35:00;100722.34;;;18.02;55.61
64388;BME280;50709;52.648;4.764;2023-04-22T09:37:26;100714.25;;;18.35;56.06
64388;BME280;50709;52.648;4.764;2023-04-22T09:39:52;100695.91;;;18.30;54.04
64388;BME280;50709;52.648;4.764;2023-04-22T09:42:19;100698.69;;;18.53;53.97
64388;BME280;50709;52.648;4.764;2023-04-22T09:44:49;100692.69;;;18.21;54.16
64388;BME280;50709;52.648;4.764;2023-04-22T09:47:18;100702.16;;;17.99;53.75
64388;BME280;50709;52.648;4.764;2023-04-22T09:49:47;100693.25;;;18.57;54.34
64388;BME280;50709;52.648;4.764;2023-04-22T09:52:23;100690.25;;;18.68;52.71
64388;BME280;50709;52.648;4.764;2023-04-22T09:54:51;100680.75;;;18.36;52.18
64388;BME280;50709;52.648;4.764;2023-04-22T09:57:17;100699.28;;;18.34;53.00
64388;BME280;50709;52.648;4.764;2023-04-22T09:59:43;100691.03;;;18.18;53.24
64388;BME280;50709;52.648;4.764;2023-04-22T10:02:08;100688.78;;;17.74;51.73
64388;BME280;50709;52.648;4.764;2023-04-22T10:04:34;100676.00;;;17.90;52.55
64388;BME280;50709;52.648;4.764;2023-04-22T10:07:00;100673.19;;;17.96;51.22
64388;BME280;50709;52.648;4.764;2023-04-22T10:09:28;100674.97;;;17.96;51.82
64388;BME280;50709;52.648;4.764;2023-04-22T10:11:55;100674.53;;;18.10;52.50
64388;BME280;50709;52.648;4.764;2023-04-22T10:14:24;100663.50;;;18.24;52.53
64388;BME280;50709;52.648;4.764;2023-04-22T10:16:53;100633.91;;;18.12;50.35
64388;BME280;50709;52.648;4.764;2023-04-22T10:19:23;100660.88;;;18.24;51.00
64388;BME280;50709;52.648;4.764;2023-04-22T10:21:54;100618.25;;;18.60;51.82
64388;BME280;50709;52.648;4.764;2023-04-22T10:24:20;100648.69;;;18.72;51.31
64388;BME280;50709;52.648;4.764;2023-04-22T10:26:51;100656.59;;;18.20;52.60
64388;BME280;50709;52.648;4.764;2023-04-22T10:29:19;100666.75;;;18.59;54.41
64388;BME280;50709;52.648;4.764;2023-04-22T10:32:07;100682.16;;;18.46;53.75
64388;BME280;50709;52.648;4.764;2023-04-22T10:34:48;100692.88;;;18.14;53.60
64388;BME280;50709;52.648;4.764;2023-04-22T10:37:17;100701.72;;;18.13;53.83
64388;BME280;50709;52.648;4.764;2023-04-22T10:40:09;100702.25;;;17.96;54.20
64388;BME280;50709;52.648;4.764;2023-04-22T10:42:57;100673.53;;;17.84;54.59
64388;BME280;50709;52.648;4.764;2023-04-22T10:45:31;100707.38;;;18.01;55.73
64388;BME280;50709;52.648;4.764;2023-04-22T10:48:01;100697.78;;;17.98;53.96
64388;BME280;50709;52.648;4.764;2023-04-22T10:50:30;100704.41;;;18.12;53.41
64388;BME280;50709;52.648;4.764;2023-04-22T10:53:34;100711.72;;;18.32;55.07
64388;BME280;50709;52.648;4.764;2023-04-22T10:56:00;100714.66;;;18.76;55.84
64388;BME280;50709;52.648;4.764;2023-04-22T10:58:27;100723.53;;;19.27;55.70
64388;BME280;50709;52.648;4.764;2023-04-22T11:00:52;100726.09;;;19.53;55.80
64388;BME280;50709;52.648;4.764;2023-04-22T11:03:28;100730.53;;;20.23;54.91
64388;BME280;50709;52.648;4.764;2023-04-22T11:06:16;100730.44;;;20.47;54.32
64388;BME280;50709;52.648;4.764;2023-04-22T11:08:44;100717.78;;;20.54;54.36
64388;BME280;50709;52.648;4.764;2023-04-22T11:11:10;100712.34;;;20.14;55.03
64388;BME280;50709;52.648;4.764;2023-04-22T11:13:40;100719.72;;;20.28;53.81
64388;BME280;50709;52.648;4.764;2023-04-22T11:16:07;100725.22;;;20.23;54.99
64388;BME280;50709;52.648;4.764;2023-04-22T11:18:32;100716.09;;;20.30;53.61
64388;BME280;50709;52.648;4.764;2023-04-22T11:21:02;100721.25;;;20.33;54.22
64388;BME280;50709;52.648;4.764;2023-04-22T11:23:30;100710.81;;;20.51;54.00
64388;BME280;50709;52.648;4.764;2023-04-22T11:26:05;100702.88;;;20.51;54.83
64388;BME280;50709;52.648;4.764;2023-04-22T11:28:31;100710.03;;;20.27;54.01
64388;BME280;50709;52.648;4.764;2023-04-22T11:31:15;100717.31;;;19.99;54.48
64388;BME280;50709;52.648;4.764;2023-04-22T11:33:40;100697.34;;;20.13;54.50
64388;BME280;50709;52.648;4.764;2023-04-22T11:36:10;100710.16;;;20.24;54.96
64388;BME280;50709;52.648;4.764;2023-04-22T11:38:36;100700.34;;;20.26;54.62
64388;BME280;50709;52.648;4.764;2023-04-22T11:41:02;100691.66;;;20.00;53.30
64388;BME280;50709;52.648;4.764;2023-04-22T11:43:29;100698.53;;;20.06;55.67
64388;BME280;50709;52.648;4.764;2023-04-22T11:45:55;100695.97;;;20.03;55.31
64388;BME280;50709;52.648;4.764;2023-04-22T11:48:21;100695.25;;;19.75;55.84
64388;BME280;50709;52.648;4.764;2023-04-22T11:50:47;100654.25;;;19.62;54.77
64388;BME280;50709;52.648;4.764;2023-04-22T11:53:20;100693.22;;;19.58;54.83
64388;BME280;50709;52.648;4.764;2023-04-22T11:55:49;100692.72;;;19.72;56.02
64388;BME280;50709;52.648;4.764;2023-04-22T11:58:26;100690.94;;;19.49;56.29
64388;BME280;50709;52.648;4.764;2023-04-22T12:00:53;100714.47;;;19.57;56.67
64388;BME280;50709;52.648;4.764;2023-04-22T12:05:50;100705.22;;;19.45;55.00
64388;BME280;50709;52.648;4.764;2023-04-22T12:08:21;100694.78;;;18.91;52.50
64388;BME280;50709;52.648;4.764;2023-04-22T12:10:49;100703.41;;;19.22;54.44
64388;BME280;50709;52.648;4.764;2023-04-22T12:13:26;100696.09;;;19.28;57.24
64388;BME280;50709;52.648;4.764;2023-04-22T12:15:58;100709.81;;;19.40;56.15
64388;BME280;50709;52.648;4.764;2023-04-22T12:18:31;100712.44;;;19.16;53.22
64388;BME280;50709;52.648;4.764;2023-04-22T12:23:28;100730.13;;;18.62;57.55
64388;BME280;50709;52.648;4.764;2023-04-22T12:25:54;100735.06;;;18.99;57.83
64388;BME280;50709;52.648;4.764;2023-04-22T12:28:20;100730.44;;;18.79;56.14
64388;BME280;50709;52.648;4.764;2023-04-22T12:30:45;100729.44;;;18.00;55.94
64388;BME280;50709;52.648;4.764;2023-04-22T12:33:11;100734.25;;;18.15;58.70
64388;BME280;50709;52.648;4.764;2023-04-22T12:35:36;100725.59;;;18.39;59.28
64388;BME280;50709;52.648;4.764;2023-04-22T12:38:02;100726.22;;;18.47;58.43
64388;BME280;50709;52.648;4.764;2023-04-22T12:40:27;100737.84;;;18.41;58.91
64388;BME280;50709;52.648;4.764;2023-04-22T12:42:53;100744.97;;;18.66;58.75
64388;BME280;50709;52.648;4.764;2023-04-22T12:45:19;100732.69;;;18.92;58.05
64388;BME280;50709;52.648;4.764;2023-04-22T12:47:48;100710.41;;;18.99;57.10
64388;BME280;50709;52.648;4.764;2023-04-22T12:50:13;100720.50;;;18.86;58.11
64388;BME280;50709;52.648;4.764;2023-04-22T12:52:39;100725.63;;;18.65;57.22
64388;BME280;50709;52.648;4.764;2023-04-22T12:55:04;100728.88;;;18.19;57.35
64388;BME280;50709;52.648;4.764;2023-04-22T12:57:30;100710.44;;;18.17;57.86